< < Back
Terminal Aerodrome Forecast


Current Version              Previous Versions:   1  2  3  4  5  6  7  8  9  

Terminal Aerodrome Forecast

792
FTUS42 KGSP 270200 AAA
TAFAVL
TAF AMD
KAVL 270201Z 2702/2724 00000KT P6SM BKN035
     FM270700 00000KT 4SM BR FEW250
      TEMPO 2709/2713 1SM BR BKN003
     FM271300 34007KT P6SM FEW040=



Latest METAR

183
SAUS70 KWBC 271000 RRH
MTRAVL
METAR KAVL 270954Z AUTO 00000KT 9SM R34/2000VP6000FT FEW001 14/13 A3015
RMK AO2 SLP187 T01390128


USA.gov is the U.S. government's official web portal to all federal, state and local government web resources and services.